createdAt,value
2017-07-15T00:00:39.662Z,70.24
2017-07-15T00:01:36.458Z,70.42
2017-07-15T00:02:34.032Z,70.42
2017-07-15T00:03:31.112Z,70.41
2017-07-15T00:04:27.964Z,70.42
2017-07-15T00:05:28.373Z,70.52
2017-07-15T00:06:25.155Z,70.57
2017-07-15T00:07:22.787Z,70.64
2017-07-15T00:08:20.537Z,70.70
2017-07-15T00:09:19.407Z,70.72
2017-07-15T00:10:16.286Z,70.80
2017-07-15T00:11:13.701Z,71.09
2017-07-15T00:12:11.039Z,71.18
2017-07-15T00:13:08.400Z,71.08
2017-07-15T00:14:05.648Z,71.02
2017-07-15T00:15:02.464Z,71.43
2017-07-15T00:15:59.600Z,71.43
2017-07-15T00:16:56.760Z,71.47
2017-07-15T00:17:54.093Z,71.51
2017-07-15T00:18:51.259Z,71.45
2017-07-15T00:19:50.091Z,71.65
2017-07-15T00:20:47.632Z,71.89
2017-07-15T00:21:45.572Z,71.79
2017-07-15T00:22:43.130Z,72.03
2017-07-15T00:23:39.933Z,71.89
2017-07-15T00:24:37.727Z,71.88
2017-07-15T00:25:36.245Z,71.92
2017-07-15T00:26:33.625Z,72.09
2017-07-15T00:27:35.507Z,72.11
2017-07-15T00:28:38.002Z,72.16
2017-07-15T00:29:36.908Z,72.07
2017-07-15T00:30:34.343Z,72.19
2017-07-15T00:31:32.988Z,72.10
2017-07-15T00:32:32.672Z,72.24
2017-07-15T00:33:29.574Z,72.25
2017-07-15T00:34:27.449Z,72.15
2017-07-15T00:35:24.677Z,72.22
2017-07-15T00:36:22.406Z,72.15
2017-07-15T00:37:20.140Z,72.20
2017-07-15T00:38:17.223Z,72.11
2017-07-15T00:39:14.599Z,72.10
2017-07-15T00:40:24.244Z,72.18
2017-07-15T00:41:20.808Z,72.30
2017-07-15T00:42:17.257Z,72.33
2017-07-15T00:43:13.880Z,72.31
2017-07-15T00:44:10.419Z,72.45
2017-07-15T00:45:07.086Z,72.37
2017-07-15T00:46:03.766Z,72.48
2017-07-15T00:47:00.158Z,72.47
2017-07-15T00:47:56.607Z,72.34
2017-07-15T00:48:58.451Z,72.37
2017-07-15T00:49:55.388Z,72.35
2017-07-15T00:50:52.329Z,72.36
2017-07-15T00:51:49.330Z,72.43
2017-07-15T00:52:45.995Z,72.29
2017-07-15T00:53:43.673Z,72.23
2017-07-15T00:54:41.404Z,72.19
2017-07-15T00:55:38.543Z,72.26
2017-07-15T00:56:36.624Z,72.24
2017-07-15T00:57:40.564Z,72.42
2017-07-15T00:58:39.994Z,72.51
2017-07-15T00:59:38.228Z,72.69
2017-07-15T01:00:36.315Z,72.83
2017-07-15T01:01:34.483Z,72.97
2017-07-15T01:02:32.537Z,73.21
2017-07-15T01:03:30.682Z,73.28
2017-07-15T01:04:29.301Z,73.26
2017-07-15T01:05:27.233Z,73.39
2017-07-15T01:06:26.956Z,73.44
2017-07-15T01:07:31.873Z,73.60
2017-07-15T01:08:31.633Z,73.65
2017-07-15T01:09:28.496Z,73.68
2017-07-15T01:10:25.739Z,73.80
2017-07-15T01:11:22.147Z,73.86
2017-07-15T01:12:19.180Z,73.98
2017-07-15T01:13:18.976Z,74.07
2017-07-15T01:14:15.286Z,74.09
2017-07-15T01:15:11.579Z,74.18
2017-07-15T01:16:07.818Z,74.21
2017-07-15T01:17:04.090Z,74.32
2017-07-15T01:18:00.339Z,74.39
2017-07-15T01:18:56.592Z,74.40
2017-07-15T01:21:05.077Z,74.56
2017-07-15T01:22:02.819Z,74.69
2017-07-15T01:23:00.675Z,74.71
2017-07-15T01:23:58.108Z,74.72
2017-07-15T01:24:54.889Z,74.70
2017-07-15T01:25:51.539Z,74.69
2017-07-15T01:26:48.500Z,74.75
2017-07-15T01:27:46.239Z,74.79
2017-07-15T01:28:45.177Z,74.84
2017-07-15T01:29:42.701Z,74.92
2017-07-15T01:30:41.485Z,74.92
2017-07-15T01:31:38.160Z,75.07
2017-07-15T01:32:36.220Z,74.98
2017-07-15T01:33:41.647Z,74.94
2017-07-15T01:34:39.171Z,74.88
2017-07-15T01:35:36.391Z,74.90
2017-07-15T01:36:33.606Z,74.82
2017-07-15T01:37:31.336Z,74.87
2017-07-15T01:38:28.088Z,74.88
2017-07-15T01:39:24.697Z,74.84
2017-07-15T01:40:22.417Z,74.89
2017-07-15T01:41:19.988Z,74.86
2017-07-15T01:42:16.826Z,74.82
2017-07-15T01:43:15.574Z,74.81
2017-07-15T01:44:15.671Z,74.74
2017-07-15T01:45:12.276Z,74.78
2017-07-15T01:46:08.992Z,74.81
2017-07-15T01:47:05.597Z,74.78
2017-07-15T01:48:01.960Z,74.75
2017-07-15T01:48:58.206Z,74.76
2017-07-15T01:49:54.479Z,74.80
2017-07-15T01:50:50.723Z,74.81
2017-07-15T01:51:46.979Z,74.78
2017-07-15T01:52:43.219Z,74.79
2017-07-15T01:53:39.471Z,74.79
2017-07-15T01:54:35.702Z,74.71
2017-07-15T01:55:31.947Z,74.70
2017-07-15T01:56:28.309Z,74.70
2017-07-15T01:57:24.544Z,74.71
2017-07-15T01:58:20.805Z,74.66
2017-07-15T01:59:17.046Z,74.65
2017-07-15T02:00:13.307Z,74.63
2017-07-15T02:01:09.571Z,74.63
2017-07-15T02:02:05.814Z,74.64
2017-07-15T02:03:02.055Z,74.64
2017-07-15T02:03:58.315Z,74.61
2017-07-15T02:04:54.563Z,74.69
2017-07-15T02:05:50.810Z,74.71
2017-07-15T02:06:47.055Z,74.75
2017-07-15T02:07:43.300Z,74.78
2017-07-15T02:08:39.563Z,74.82
2017-07-15T02:09:35.807Z,74.87
2017-07-15T02:10:32.054Z,74.91
2017-07-15T02:11:28.291Z,74.93
2017-07-15T02:12:24.541Z,74.97
2017-07-15T02:13:20.783Z,75.02
2017-07-15T02:14:17.043Z,75.03
2017-07-15T02:15:13.274Z,75.07
2017-07-15T02:16:09.515Z,75.23
2017-07-15T02:17:05.751Z,75.23
2017-07-15T02:18:01.978Z,75.26
2017-07-15T02:18:58.219Z,75.27
2017-07-15T02:19:54.483Z,75.30
2017-07-15T02:20:50.726Z,75.36
2017-07-15T02:21:46.951Z,75.40
2017-07-15T02:22:43.194Z,75.47
2017-07-15T02:23:39.439Z,75.48
2017-07-15T02:24:35.682Z,75.53
2017-07-15T02:25:31.920Z,75.65
2017-07-15T02:26:28.159Z,75.63
2017-07-15T02:27:24.392Z,75.61
2017-07-15T02:28:20.632Z,75.59
2017-07-15T02:29:16.870Z,75.74
2017-07-15T02:30:13.129Z,75.74
2017-07-15T02:31:09.378Z,75.80
2017-07-15T02:32:05.606Z,75.79
2017-07-15T02:33:01.842Z,75.82
2017-07-15T02:33:58.079Z,75.86
2017-07-15T02:34:54.339Z,75.87
2017-07-15T02:35:50.579Z,75.99
2017-07-15T02:36:46.824Z,76.03
2017-07-15T02:37:43.063Z,76.09
2017-07-15T02:38:39.295Z,76.19
2017-07-15T02:39:35.523Z,76.21
2017-07-15T02:40:31.783Z,76.26
2017-07-15T02:41:28.022Z,76.44
2017-07-15T02:42:24.269Z,76.42
2017-07-15T02:43:20.511Z,76.40
2017-07-15T02:44:16.759Z,76.40
2017-07-15T02:45:13.004Z,76.42
2017-07-15T02:46:09.270Z,76.45
2017-07-15T02:47:05.524Z,76.45
2017-07-15T02:48:01.763Z,76.44
2017-07-15T02:48:57.999Z,76.47
2017-07-15T02:49:54.239Z,76.50
2017-07-15T02:50:50.511Z,76.50
2017-07-15T02:51:46.755Z,76.53
2017-07-15T02:52:42.996Z,76.56
2017-07-15T02:53:39.247Z,76.58
2017-07-15T02:54:35.487Z,76.62
2017-07-15T02:55:31.728Z,76.63
2017-07-15T02:56:28.003Z,76.67
2017-07-15T02:57:24.264Z,76.74
2017-07-15T02:58:20.511Z,76.83
2017-07-15T02:59:16.762Z,76.92
2017-07-15T03:00:13.012Z,76.95
2017-07-15T03:01:09.263Z,77.03
2017-07-15T03:02:05.519Z,77.08
2017-07-15T03:03:01.754Z,77.17
2017-07-15T03:03:57.997Z,77.22
2017-07-15T03:04:54.244Z,77.25
2017-07-15T03:05:50.487Z,77.29
2017-07-15T03:06:46.747Z,77.31
2017-07-15T03:07:42.987Z,77.32
2017-07-15T03:08:39.226Z,77.37
2017-07-15T03:09:35.468Z,77.37
2017-07-15T03:10:31.699Z,77.37
2017-07-15T03:11:27.967Z,77.41
2017-07-15T03:12:24.215Z,77.45
2017-07-15T03:13:20.454Z,77.47
2017-07-15T03:14:16.698Z,77.49
2017-07-15T03:15:12.942Z,77.51
2017-07-15T03:16:09.189Z,77.57
2017-07-15T03:17:05.449Z,77.61
2017-07-15T03:18:01.706Z,77.68
2017-07-15T03:18:57.951Z,77.72
2017-07-15T03:19:54.190Z,77.75
2017-07-15T03:20:50.434Z,77.79
2017-07-15T03:21:46.683Z,77.86
2017-07-15T03:22:42.941Z,77.89
2017-07-15T03:23:39.185Z,77.93
2017-07-15T03:24:35.419Z,77.99
2017-07-15T03:25:31.647Z,78.02
2017-07-15T03:26:27.930Z,78.09
2017-07-15T03:27:24.139Z,78.13
2017-07-15T03:28:20.394Z,78.19
2017-07-15T03:29:16.629Z,78.27
2017-07-15T03:30:12.878Z,78.32
2017-07-15T03:31:09.110Z,78.37
2017-07-15T03:32:05.363Z,78.43
2017-07-15T03:33:01.618Z,78.48
2017-07-15T03:33:57.884Z,78.54
2017-07-15T03:34:54.139Z,78.60
2017-07-15T03:35:50.374Z,78.61
2017-07-15T03:36:46.611Z,78.65
2017-07-15T03:37:42.870Z,78.70
2017-07-15T03:38:39.131Z,78.77
2017-07-15T03:39:35.371Z,78.80
2017-07-15T03:40:31.606Z,78.81
2017-07-15T03:41:27.835Z,78.84
2017-07-15T03:42:24.071Z,78.91
2017-07-15T03:43:20.342Z,78.98
2017-07-15T03:44:16.591Z,79.02
2017-07-15T03:45:12.829Z,79.04
2017-07-15T03:46:09.081Z,79.05
2017-07-15T03:47:05.317Z,79.06
2017-07-15T03:48:01.589Z,79.10
2017-07-15T03:48:57.834Z,79.14
2017-07-15T03:49:54.078Z,79.18
2017-07-15T03:50:50.315Z,79.24
2017-07-15T03:51:46.559Z,79.31
2017-07-15T03:52:42.807Z,79.45
2017-07-15T03:53:39.072Z,79.55
2017-07-15T03:54:35.318Z,79.61
2017-07-15T03:55:31.564Z,79.68
2017-07-15T03:56:27.823Z,79.71
2017-07-15T03:57:24.059Z,79.74
2017-07-15T03:58:20.302Z,79.75
2017-07-15T03:59:16.558Z,79.77
2017-07-15T04:00:12.797Z,79.78
2017-07-15T04:01:09.047Z,79.81
2017-07-15T04:02:05.290Z,79.79
2017-07-15T04:03:01.531Z,79.79
2017-07-15T04:03:57.773Z,79.78
2017-07-15T04:04:54.032Z,79.80
2017-07-15T04:05:50.273Z,79.84
2017-07-15T04:06:46.511Z,79.89
2017-07-15T04:07:42.751Z,79.92
2017-07-15T04:08:38.995Z,79.93
2017-07-15T04:09:35.250Z,79.94
2017-07-15T04:10:31.483Z,79.95
2017-07-15T04:11:27.722Z,79.95
2017-07-15T04:12:23.962Z,79.96
2017-07-15T04:13:20.203Z,80.01
2017-07-15T04:14:16.442Z,80.01
2017-07-15T04:15:12.699Z,80.04
2017-07-15T04:16:08.938Z,80.04
2017-07-15T04:17:05.199Z,80.06
2017-07-15T04:18:01.442Z,80.12
2017-07-15T04:18:57.693Z,80.19
2017-07-15T04:19:53.940Z,80.25
2017-07-15T04:20:50.196Z,80.37
2017-07-15T04:21:46.436Z,80.54
2017-07-15T04:22:42.674Z,80.62
2017-07-15T04:23:38.910Z,80.66
2017-07-15T04:24:35.137Z,80.70
2017-07-15T04:25:31.388Z,80.73
2017-07-15T04:26:27.687Z,80.76
2017-07-15T04:27:23.967Z,80.83
2017-07-15T04:28:20.250Z,80.89
2017-07-15T04:29:16.541Z,80.96
2017-07-15T04:30:12.827Z,80.99
2017-07-15T04:31:09.082Z,81.03
2017-07-15T04:32:05.371Z,81.07
2017-07-15T04:33:01.599Z,81.10
2017-07-15T04:33:57.842Z,81.14
2017-07-15T04:34:54.087Z,81.21
2017-07-15T04:35:50.326Z,81.28
2017-07-15T04:36:46.597Z,81.33
2017-07-15T04:37:42.839Z,81.40
2017-07-15T04:38:39.083Z,81.43
2017-07-15T04:39:35.330Z,81.46
2017-07-15T04:40:31.570Z,81.51
2017-07-15T04:41:27.833Z,81.54
2017-07-15T04:42:24.083Z,81.54
2017-07-15T04:43:20.345Z,81.55
2017-07-15T04:44:16.589Z,81.53
2017-07-15T04:45:12.823Z,81.54
2017-07-15T04:46:09.059Z,81.54
2017-07-15T04:47:05.328Z,81.58
2017-07-15T04:48:01.571Z,81.61
2017-07-15T04:48:57.815Z,81.62
2017-07-15T04:49:54.063Z,81.61
2017-07-15T04:50:50.302Z,81.61
2017-07-15T04:51:46.567Z,81.63
2017-07-15T04:52:42.808Z,81.61
2017-07-15T04:53:39.059Z,81.66
2017-07-15T04:54:35.302Z,81.77
2017-07-15T04:55:31.543Z,81.79
2017-07-15T04:56:27.783Z,81.79
2017-07-15T04:57:24.047Z,81.80
2017-07-15T04:58:20.279Z,81.74
2017-07-15T04:59:16.514Z,81.73
2017-07-15T05:00:12.750Z,81.67
2017-07-15T05:01:08.993Z,81.64
2017-07-15T05:02:05.238Z,81.63
2017-07-15T05:03:01.487Z,81.65
2017-07-15T05:03:57.716Z,81.65
2017-07-15T05:04:53.971Z,81.65
2017-07-15T05:05:50.207Z,81.69
2017-07-15T05:06:46.454Z,81.65
2017-07-15T05:07:42.690Z,81.58
2017-07-15T05:08:38.946Z,81.54
2017-07-15T05:09:35.187Z,81.49
2017-07-15T05:10:31.417Z,81.45
2017-07-15T05:11:27.654Z,81.38
2017-07-15T05:12:23.891Z,81.28
2017-07-15T05:13:20.143Z,81.24
2017-07-15T05:14:16.381Z,81.23
2017-07-15T05:15:12.645Z,81.22
2017-07-15T05:16:08.879Z,81.16
2017-07-15T05:17:05.116Z,81.14
2017-07-15T05:18:01.363Z,81.11
2017-07-15T05:18:57.619Z,81.05
2017-07-15T05:19:53.863Z,80.95
2017-07-15T05:20:50.122Z,80.88
2017-07-15T05:21:46.362Z,80.76
2017-07-15T05:22:42.598Z,80.63
2017-07-15T05:23:38.838Z,80.47
2017-07-15T05:24:35.106Z,80.29
2017-07-15T05:25:31.343Z,80.12
2017-07-15T05:26:27.591Z,79.97
2017-07-15T05:27:23.835Z,79.88
2017-07-15T05:28:20.083Z,79.79
2017-07-15T05:29:16.322Z,79.67
2017-07-15T05:30:12.572Z,79.58
2017-07-15T05:31:08.806Z,79.50
2017-07-15T05:32:05.035Z,79.37
2017-07-15T05:33:01.274Z,79.20
2017-07-15T05:33:57.515Z,79.02
2017-07-15T05:34:53.778Z,78.83
2017-07-15T05:35:50.028Z,78.70
2017-07-15T05:36:46.270Z,78.61
2017-07-15T05:37:42.508Z,78.49
2017-07-15T05:39:47.807Z,78.32
2017-07-15T05:40:44.067Z,78.05
2017-07-15T05:41:40.303Z,77.88
2017-07-15T05:42:36.566Z,77.76
2017-07-15T05:43:55.999Z,77.66
2017-07-15T05:44:52.258Z,77.45
2017-07-15T05:45:48.523Z,77.28
2017-07-15T05:46:44.759Z,77.18
2017-07-15T05:47:40.994Z,77.06
2017-07-15T05:48:37.239Z,76.98
2017-07-15T05:49:33.470Z,76.88
2017-07-15T05:50:29.732Z,76.79
2017-07-15T05:51:25.991Z,76.68
2017-07-15T05:53:26.136Z,76.46
2017-07-15T05:54:22.404Z,76.31
2017-07-15T05:55:18.671Z,76.21
2017-07-15T05:56:14.935Z,76.15
2017-07-15T05:57:11.175Z,76.20
2017-07-15T05:58:07.419Z,76.10
2017-07-15T05:59:03.670Z,76.05
2017-07-15T05:59:59.921Z,75.89
2017-07-15T06:00:56.183Z,75.73
2017-07-15T06:01:52.427Z,75.63
2017-07-15T06:02:48.690Z,75.46
2017-07-15T06:03:44.971Z,75.33
2017-07-15T06:04:41.208Z,75.15
2017-07-15T06:05:37.451Z,75.07
2017-07-15T06:06:33.722Z,74.96
2017-07-15T06:07:29.987Z,74.87
2017-07-15T06:08:26.235Z,74.71
2017-07-15T06:09:22.490Z,74.50
2017-07-15T06:10:18.740Z,74.37
2017-07-15T06:11:15.021Z,74.17
2017-07-15T06:12:11.279Z,73.99
2017-07-15T06:13:07.524Z,73.97
2017-07-15T06:14:03.794Z,73.91
2017-07-15T06:15:00.089Z,73.75
2017-07-15T06:15:56.357Z,73.53
2017-07-15T06:16:52.635Z,73.38
2017-07-15T06:17:48.879Z,73.32
2017-07-15T06:18:45.114Z,73.36
2017-07-15T06:19:41.365Z,73.40
2017-07-15T06:20:37.608Z,73.53
2017-07-15T06:21:33.874Z,73.50
2017-07-15T06:22:30.114Z,73.31
2017-07-15T06:23:26.358Z,73.02
2017-07-15T06:24:22.602Z,72.93
2017-07-15T06:25:18.843Z,72.59
2017-07-15T06:26:15.097Z,72.53
2017-07-15T06:27:11.354Z,72.42
2017-07-15T06:28:07.622Z,72.47
2017-07-15T06:29:03.870Z,72.56
2017-07-15T06:30:00.118Z,72.62
2017-07-15T06:30:56.369Z,72.64
2017-07-15T06:31:52.650Z,72.56
2017-07-15T06:32:48.895Z,72.52
2017-07-15T06:33:45.144Z,72.41
2017-07-15T06:34:41.391Z,72.29
2017-07-15T06:35:37.645Z,72.29
2017-07-15T06:36:33.892Z,72.25
2017-07-15T06:37:30.168Z,72.28
2017-07-15T06:38:26.419Z,72.32
2017-07-15T06:39:22.667Z,72.35
2017-07-15T06:40:18.919Z,72.36
2017-07-15T06:41:15.163Z,72.45
2017-07-15T06:42:11.419Z,72.47
2017-07-15T06:43:07.687Z,72.46
2017-07-15T06:44:03.943Z,72.53
2017-07-15T06:45:00.182Z,72.64
2017-07-15T06:45:56.439Z,72.76
2017-07-15T06:46:52.687Z,72.88
2017-07-15T06:47:48.931Z,72.81
2017-07-15T06:48:45.183Z,72.82
2017-07-15T06:49:41.439Z,72.88
2017-07-15T06:50:37.679Z,73.00
2017-07-15T06:51:33.931Z,73.06
2017-07-15T06:52:30.179Z,72.94
2017-07-15T06:53:26.439Z,72.83
2017-07-15T06:54:22.690Z,72.93
2017-07-15T06:55:18.938Z,72.98
2017-07-15T06:56:15.179Z,73.05
2017-07-15T06:57:11.431Z,73.05
2017-07-15T06:58:07.687Z,73.12
2017-07-15T06:59:03.952Z,73.21
2017-07-15T07:00:00.182Z,73.31
2017-07-15T07:00:56.419Z,73.45
2017-07-15T07:01:52.681Z,73.46
2017-07-15T07:02:48.923Z,73.39
2017-07-15T07:03:45.199Z,73.42
2017-07-15T07:04:41.447Z,73.48
2017-07-15T07:05:37.692Z,73.47
2017-07-15T07:06:33.931Z,73.47
2017-07-15T07:07:30.197Z,73.60
2017-07-15T07:08:26.471Z,73.81
2017-07-15T07:09:22.743Z,73.91
2017-07-15T07:10:18.988Z,73.94
2017-07-15T07:11:15.231Z,73.90
2017-07-15T07:12:11.487Z,73.88
2017-07-15T07:13:07.745Z,73.89
2017-07-15T07:14:03.982Z,73.89
2017-07-15T07:15:00.240Z,73.82
2017-07-15T07:15:56.483Z,73.69
2017-07-15T07:16:52.739Z,73.49
2017-07-15T07:17:48.994Z,73.36
2017-07-15T07:18:45.239Z,73.34
2017-07-15T07:19:41.499Z,73.42
2017-07-15T07:20:37.758Z,73.36
2017-07-15T07:21:33.999Z,73.46
2017-07-15T07:22:30.265Z,73.57
2017-07-15T07:23:26.506Z,73.55
2017-07-15T07:24:22.759Z,73.52
2017-07-15T07:25:19.023Z,73.44
2017-07-15T07:26:15.280Z,73.42
2017-07-15T07:27:11.518Z,73.48
2017-07-15T07:28:07.791Z,73.59
2017-07-15T07:29:04.029Z,73.68
2017-07-15T07:30:00.275Z,73.56
2017-07-15T07:30:56.535Z,73.48
2017-07-15T07:31:52.811Z,73.48
2017-07-15T07:32:49.114Z,73.44
2017-07-15T07:33:45.375Z,73.42
2017-07-15T07:34:41.636Z,73.41
2017-07-15T07:35:37.899Z,73.39
2017-07-15T07:36:34.146Z,73.35
2017-07-15T07:37:30.386Z,73.19
2017-07-15T07:38:26.631Z,72.87
2017-07-15T07:39:22.969Z,72.74
2017-07-15T07:40:21.686Z,72.53
2017-07-15T07:41:35.539Z,72.42
2017-07-15T07:42:46.799Z,72.20
2017-07-15T07:43:44.874Z,71.72
2017-07-15T07:44:41.804Z,71.04
2017-07-15T07:45:40.623Z,70.20
2017-07-15T07:46:37.573Z,69.79
2017-07-15T07:47:34.330Z,69.34
2017-07-15T07:48:31.159Z,68.96
2017-07-15T07:49:27.560Z,68.36
2017-07-15T07:50:23.826Z,67.85
2017-07-15T07:51:20.075Z,67.38
2017-07-15T07:52:21.656Z,67.05
2017-07-15T07:54:24.224Z,65.93
2017-07-15T07:55:20.483Z,65.66
2017-07-15T07:56:16.724Z,65.16
2017-07-15T07:57:12.987Z,64.87
2017-07-15T07:58:12.463Z,64.54
2017-07-15T07:59:08.792Z,63.79
2017-07-15T08:00:07.967Z,63.77
2017-07-15T08:01:05.312Z,63.82
2017-07-15T08:02:01.892Z,63.76
2017-07-15T08:02:58.315Z,63.50
2017-07-15T08:03:55.371Z,63.31
2017-07-15T08:04:51.927Z,63.18
2017-07-15T08:05:48.619Z,63.07
2017-07-15T08:06:50.549Z,63.04
2017-07-15T08:07:48.836Z,62.56
2017-07-15T08:08:46.096Z,62.46
2017-07-15T08:09:42.527Z,62.42
2017-07-15T08:10:40.211Z,62.39
2017-07-15T08:12:39.911Z,62.40
2017-07-15T08:13:37.140Z,61.97
2017-07-15T08:14:33.571Z,62.11
2017-07-15T08:15:30.040Z,62.00
2017-07-15T08:16:26.295Z,61.66
2017-07-15T08:17:22.538Z,61.55
2017-07-15T08:18:18.915Z,61.24
2017-07-15T08:19:15.154Z,61.00
2017-07-15T08:20:11.399Z,61.11
2017-07-15T08:21:07.755Z,61.17
2017-07-15T08:22:04.080Z,61.32
2017-07-15T08:23:00.606Z,61.03
2017-07-15T08:25:04.287Z,61.05
2017-07-15T08:26:01.574Z,60.97
2017-07-15T08:26:57.878Z,61.04
2017-07-15T08:27:54.162Z,61.12
2017-07-15T08:28:54.580Z,60.99
2017-07-15T08:29:50.921Z,60.29
2017-07-15T08:30:47.384Z,60.27
2017-07-15T08:31:43.757Z,60.17
2017-07-15T08:32:40.005Z,60.37
2017-07-15T08:33:36.342Z,60.26
2017-07-15T08:34:32.597Z,60.25
2017-07-15T08:35:28.870Z,60.28
2017-07-15T08:36:27.158Z,60.45
2017-07-15T08:37:24.492Z,60.45
2017-07-15T08:38:20.967Z,60.20
2017-07-15T08:39:17.232Z,60.10
2017-07-15T08:40:16.498Z,60.13
2017-07-15T08:41:12.880Z,60.05
2017-07-15T08:42:09.614Z,60.18
2017-07-15T08:43:05.887Z,60.32
2017-07-15T08:44:02.271Z,60.27
2017-07-15T08:44:58.532Z,60.13
2017-07-15T08:45:54.787Z,60.14
2017-07-15T08:46:55.026Z,60.18
2017-07-15T08:47:51.292Z,59.93
2017-07-15T08:48:47.553Z,59.84
2017-07-15T08:49:43.830Z,59.50
2017-07-15T08:50:41.115Z,59.50
2017-07-15T08:51:37.375Z,59.75
2017-07-15T08:52:33.620Z,59.64
2017-07-15T08:53:29.875Z,59.51
2017-07-15T08:54:26.155Z,59.52
2017-07-15T08:55:22.423Z,59.61
2017-07-15T08:56:18.689Z,59.79
2017-07-15T08:57:14.942Z,59.64
2017-07-15T08:58:11.199Z,59.68
2017-07-15T08:59:07.447Z,59.65
2017-07-15T09:00:03.690Z,59.36
2017-07-15T09:00:59.971Z,58.90
2017-07-15T09:01:56.222Z,58.90
2017-07-15T09:02:52.462Z,58.48
2017-07-15T09:03:48.721Z,58.45
2017-07-15T09:04:44.958Z,58.42
2017-07-15T09:05:41.222Z,58.42
2017-07-15T09:06:37.479Z,58.47
2017-07-15T09:07:33.762Z,58.14
2017-07-15T09:08:30.034Z,57.97
2017-07-15T09:09:26.283Z,57.88
2017-07-15T09:10:22.541Z,57.97
2017-07-15T09:11:18.834Z,57.48
2017-07-15T09:12:15.091Z,57.69
2017-07-15T09:13:11.350Z,57.63
2017-07-15T09:14:07.603Z,57.30
2017-07-15T09:15:03.858Z,57.07
2017-07-15T09:16:00.122Z,56.86
2017-07-15T09:16:56.383Z,57.21
2017-07-15T09:17:53.439Z,57.14
2017-07-15T09:18:50.825Z,56.76
2017-07-15T09:19:47.364Z,56.56
2017-07-15T09:20:43.630Z,56.14
2017-07-15T09:21:40.179Z,56.23
2017-07-15T09:22:41.509Z,55.92
2017-07-15T09:23:40.017Z,56.05
2017-07-15T09:24:36.756Z,56.18
2017-07-15T09:25:33.355Z,55.85
2017-07-15T09:26:29.918Z,55.67
2017-07-15T09:27:27.519Z,55.91
2017-07-15T09:28:24.112Z,55.85
2017-07-15T09:29:20.446Z,55.78
2017-07-15T09:30:16.793Z,56.01
2017-07-15T09:31:13.083Z,56.01
2017-07-15T09:32:09.525Z,56.21
2017-07-15T09:33:05.921Z,56.52
2017-07-15T09:34:02.415Z,56.56
2017-07-15T09:34:58.923Z,56.34
2017-07-15T09:35:55.410Z,56.15
2017-07-15T09:36:52.125Z,56.21
2017-07-15T09:37:48.593Z,56.09
2017-07-15T09:38:44.984Z,55.47
2017-07-15T09:39:42.352Z,55.43
2017-07-15T09:40:39.670Z,55.39
2017-07-15T09:41:36.046Z,55.12
2017-07-15T09:42:32.322Z,55.03
2017-07-15T09:43:28.955Z,54.75
2017-07-15T09:44:25.294Z,54.66
2017-07-15T09:45:21.732Z,54.80
2017-07-15T09:46:18.019Z,54.78
2017-07-15T09:47:14.524Z,54.83
2017-07-15T09:48:10.945Z,55.01
2017-07-15T09:49:07.232Z,55.17
2017-07-15T09:50:03.541Z,55.36
2017-07-15T09:51:00.569Z,55.48
2017-07-15T09:51:56.870Z,55.43
2017-07-15T09:52:53.951Z,55.44
2017-07-15T09:53:50.721Z,55.51
2017-07-15T09:54:47.564Z,55.78
2017-07-15T09:55:43.911Z,56.03
2017-07-15T09:56:40.598Z,55.42
2017-07-15T09:57:36.994Z,55.28
2017-07-15T09:58:33.511Z,55.38
2017-07-15T09:59:29.981Z,55.42
2017-07-15T10:00:26.420Z,55.38
2017-07-15T10:01:22.845Z,55.40
2017-07-15T10:02:19.383Z,55.62
2017-07-15T10:03:15.845Z,55.74
2017-07-15T10:04:12.463Z,55.70
2017-07-15T10:05:08.986Z,55.23
2017-07-15T10:06:05.708Z,54.99
2017-07-15T10:07:02.285Z,55.35
2017-07-15T10:07:58.847Z,54.96
2017-07-15T10:08:55.103Z,54.96
2017-07-15T10:09:52.575Z,54.64
2017-07-15T10:10:49.971Z,54.44
2017-07-15T10:11:46.677Z,54.14
2017-07-15T10:12:44.896Z,53.85
2017-07-15T10:13:41.717Z,53.69
2017-07-15T10:14:38.421Z,53.35
2017-07-15T10:15:35.072Z,53.35
2017-07-15T10:16:31.550Z,53.73
2017-07-15T10:17:28.474Z,53.89
2017-07-15T10:18:24.971Z,54.04
2017-07-15T10:19:21.444Z,54.06
2017-07-15T10:20:17.891Z,54.16
2017-07-15T10:21:14.146Z,54.16
2017-07-15T10:22:10.386Z,54.35
2017-07-15T10:23:06.671Z,54.57
2017-07-15T10:24:02.935Z,54.50
2017-07-15T10:24:59.183Z,54.39
2017-07-15T10:25:55.751Z,54.46
2017-07-15T10:26:52.883Z,54.60
2017-07-15T10:27:49.207Z,54.62
2017-07-15T10:28:46.159Z,54.48
2017-07-15T10:29:42.399Z,54.52
2017-07-15T10:30:38.638Z,54.80
2017-07-15T10:31:34.879Z,55.17
2017-07-15T10:32:31.128Z,55.70
2017-07-15T10:33:27.391Z,56.00
2017-07-15T10:34:23.635Z,56.12
2017-07-15T10:35:19.887Z,56.11
2017-07-15T10:36:16.123Z,56.17
2017-07-15T10:37:12.635Z,56.63
2017-07-15T10:38:08.883Z,57.00
2017-07-15T10:39:05.146Z,56.69
2017-07-15T10:40:01.427Z,56.40
2017-07-15T10:40:57.687Z,56.40
2017-07-15T10:41:53.934Z,56.39
2017-07-15T10:42:50.183Z,56.47
2017-07-15T10:43:46.467Z,56.46
2017-07-15T10:44:42.718Z,56.47
2017-07-15T10:45:38.960Z,56.58
2017-07-15T10:46:35.208Z,56.69
2017-07-15T10:47:31.448Z,56.62
2017-07-15T10:48:27.712Z,56.71
2017-07-15T10:49:23.967Z,56.85
2017-07-15T10:50:20.206Z,56.47
2017-07-15T10:51:16.676Z,56.41
2017-07-15T10:52:14.087Z,56.62
2017-07-15T10:53:10.527Z,56.64
2017-07-15T10:54:06.834Z,56.43
2017-07-15T10:55:03.087Z,56.38
2017-07-15T10:55:59.336Z,56.45
2017-07-15T10:56:55.575Z,56.46
2017-07-15T10:57:51.815Z,56.41
2017-07-15T10:58:48.099Z,56.54
2017-07-15T10:59:44.338Z,56.45
2017-07-15T11:00:40.570Z,56.46
2017-07-15T11:01:36.815Z,56.60
2017-07-15T11:02:33.058Z,56.82
2017-07-15T11:03:29.306Z,56.94
2017-07-15T11:04:25.567Z,57.10
2017-07-15T11:05:21.807Z,57.16
2017-07-15T11:06:18.051Z,57.11
2017-07-15T11:07:14.306Z,57.17
2017-07-15T11:08:10.555Z,57.36
2017-07-15T11:09:06.831Z,57.43
2017-07-15T11:10:03.074Z,57.42
2017-07-15T11:10:59.318Z,57.27
2017-07-15T11:11:55.571Z,56.90
2017-07-15T11:12:51.811Z,56.43
2017-07-15T11:13:48.071Z,56.36
2017-07-15T11:14:44.319Z,56.48
2017-07-15T11:15:40.567Z,56.56
2017-07-15T11:16:36.811Z,56.73
2017-07-15T11:17:33.055Z,56.98
2017-07-15T11:18:29.296Z,57.30
2017-07-15T11:19:25.584Z,57.55
2017-07-15T11:20:21.832Z,57.81
2017-07-15T11:21:18.075Z,57.96
2017-07-15T11:22:14.314Z,58.16
2017-07-15T11:23:10.572Z,58.26
2017-07-15T11:24:06.834Z,58.38
2017-07-15T11:25:03.093Z,58.56
2017-07-15T11:25:59.327Z,58.82
2017-07-15T11:26:55.587Z,59.23
2017-07-15T11:27:51.847Z,59.69
2017-07-15T11:28:48.102Z,60.00
2017-07-15T11:29:44.364Z,60.11
2017-07-15T11:30:40.619Z,60.20
2017-07-15T11:31:36.875Z,60.45
2017-07-15T11:32:33.126Z,60.77
2017-07-15T11:33:29.362Z,61.10
2017-07-15T11:34:25.613Z,61.25
2017-07-15T11:35:21.850Z,61.29
2017-07-15T11:36:18.096Z,61.21
2017-07-15T11:37:14.342Z,61.14
2017-07-15T11:38:10.591Z,61.49
2017-07-15T11:39:06.831Z,61.61
2017-07-15T11:40:03.086Z,61.71
2017-07-15T11:40:59.343Z,61.78
2017-07-15T11:41:55.587Z,61.72
2017-07-15T11:42:51.831Z,61.67
2017-07-15T11:43:48.403Z,61.52
2017-07-15T11:44:44.667Z,61.18
2017-07-15T11:45:40.914Z,60.99
2017-07-15T11:46:37.154Z,60.76
2017-07-15T11:47:33.400Z,60.99
2017-07-15T11:48:29.643Z,60.96
2017-07-15T11:49:25.883Z,60.73
2017-07-15T11:50:22.135Z,60.68
2017-07-15T11:51:18.381Z,60.73
2017-07-15T11:52:14.619Z,61.07
2017-07-15T11:53:10.866Z,61.46
2017-07-15T11:54:07.110Z,61.78
2017-07-15T11:55:03.354Z,61.87
2017-07-15T11:55:59.595Z,61.64
2017-07-15T11:56:55.839Z,61.28
2017-07-15T11:57:52.075Z,61.06
2017-07-15T11:58:48.319Z,60.89
2017-07-15T11:59:44.559Z,60.65
2017-07-15T12:00:40.815Z,60.56
2017-07-15T12:01:37.051Z,60.55
2017-07-15T12:02:33.294Z,60.36
2017-07-15T12:03:29.534Z,60.25
2017-07-15T12:04:25.775Z,60.14
2017-07-15T12:05:22.023Z,60.30
2017-07-15T12:06:18.286Z,60.53
2017-07-15T12:07:14.566Z,60.44
2017-07-15T12:08:10.807Z,60.17
2017-07-15T12:09:07.047Z,59.97
2017-07-15T12:10:03.290Z,59.78
2017-07-15T12:10:59.559Z,59.53
2017-07-15T12:11:55.811Z,59.24
2017-07-15T12:12:52.059Z,59.07
2017-07-15T12:13:48.298Z,58.83
2017-07-15T12:14:44.538Z,58.88
2017-07-15T12:15:40.799Z,58.95
2017-07-15T12:16:37.050Z,58.95